MMCS/CJS METAR and TAF weather

Enter ICAO airport designator
Station Type Date Time Source
MMCS METAR 2020/07/08 22:40 UTC NOAA

MMCS 082240Z 36006KT 10SM FEW050 FEW080 40/03 A2991 RMK 8/130 ISOL TCU


Station Type Date Time Source
MMCS Decoded METAR 2020/07/08 22:40 UTC NOAA

Ciudad Juarez International , Mexico (MMCS) 31-38N 106-26W
Jul 08, 2020 - 06:40 PM EDT / 2020.07.08 2240 UTC
Wind: from the N (360 degrees) at 7 MPH (6 KT):0
Visibility: 10 mile(s):0
Sky conditions: mostly clear
Weather: Towering cumulus clouds observed
Temperature: 104 F (40 C)
Dew Point: 37 F (3 C)
Relative Humidity: 10%
Pressure (altimeter): 29.91 in. Hg (1012 hPa)
ob: MMCS 082240Z 36006KT 10SM FEW050 FEW080 40/03 A2991 RMK 8/130 ISOL TCU
cycle: 22

Station Type Date Time Source
MMCS TAF 2020/07/08 18:47 UTC NOAA

TAF MMCS 081743Z 0818/0918 30010KT P6SM SCT250
FM090300 30005KT P6SM SCT080 SCT250
FM091700 34012KT P6SM SKC

Example: see airport list